sensor_id;sensor_type;location;lat;lon;timestamp;temperature;humidity
16515;DHT22;8370;52.556;7.970;2023-02-23T00:00:27;8.60;99.90
16515;DHT22;8370;52.556;7.970;2023-02-23T00:02:54;8.60;99.90
16515;DHT22;8370;52.556;7.970;2023-02-23T00:05:23;8.70;99.90
16515;DHT22;8370;52.556;7.970;2023-02-23T00:07:49;8.70;99.90
16515;DHT22;8370;52.556;7.970;2023-02-23T00:10:16;8.70;99.90
16515;DHT22;8370;52.556;7.970;2023-02-23T00:12:43;8.70;99.90
16515;DHT22;8370;52.556;7.970;2023-02-23T00:15:10;8.80;99.90
16515;DHT22;8370;52.556;7.970;2023-02-23T00:17:36;8.80;99.90
16515;DHT22;8370;52.556;7.970;2023-02-23T00:20:03;8.80;99.90
16515;DHT22;8370;52.556;7.970;2023-02-23T00:22:32;8.80;99.90
16515;DHT22;8370;52.556;7.970;2023-02-23T00:24:58;8.80;99.90
16515;DHT22;8370;52.556;7.970;2023-02-23T00:27:24;8.90;99.90
16515;DHT22;8370;52.556;7.970;2023-02-23T00:29:50;8.90;99.90
16515;DHT22;8370;52.556;7.970;2023-02-23T00:32:16;8.90;99.90
16515;DHT22;8370;52.556;7.970;2023-02-23T00:34:45;8.90;99.90
16515;DHT22;8370;52.556;7.970;2023-02-23T00:37:15;9.10;99.90
16515;DHT22;8370;52.556;7.970;2023-02-23T00:39:40;9.10;99.90
16515;DHT22;8370;52.556;7.970;2023-02-23T00:42:06;9.00;99.90
16515;DHT22;8370;52.556;7.970;2023-02-23T00:44:32;9.00;99.90
16515;DHT22;8370;52.556;7.970;2023-02-23T00:46:58;9.00;99.90
16515;DHT22;8370;52.556;7.970;2023-02-23T00:49:25;9.10;99.90
16515;DHT22;8370;52.556;7.970;2023-02-23T00:51:51;9.00;99.90
16515;DHT22;8370;52.556;7.970;2023-02-23T00:54:17;9.00;99.90
16515;DHT22;8370;52.556;7.970;2023-02-23T00:56:43;9.00;99.90
16515;DHT22;8370;52.556;7.970;2023-02-23T00:59:10;9.10;99.90
16515;DHT22;8370;52.556;7.970;2023-02-23T01:01:36;9.00;99.90
16515;DHT22;8370;52.556;7.970;2023-02-23T01:04:03;8.90;99.90
16515;DHT22;8370;52.556;7.970;2023-02-23T01:06:29;8.80;99.90
16515;DHT22;8370;52.556;7.970;2023-02-23T01:08:55;8.90;99.90
16515;DHT22;8370;52.556;7.970;2023-02-23T01:11:24;8.80;99.90
16515;DHT22;8370;52.556;7.970;2023-02-23T01:13:53;8.80;99.90
16515;DHT22;8370;52.556;7.970;2023-02-23T01:16:21;8.80;99.90
16515;DHT22;8370;52.556;7.970;2023-02-23T01:18:47;8.80;99.90
16515;DHT22;8370;52.556;7.970;2023-02-23T01:21:48;8.80;99.90
16515;DHT22;8370;52.556;7.970;2023-02-23T01:24:07;8.70;99.90
16515;DHT22;8370;52.556;7.970;2023-02-23T01:26:35;8.80;99.90
16515;DHT22;8370;52.556;7.970;2023-02-23T01:29:04;8.80;99.90
16515;DHT22;8370;52.556;7.970;2023-02-23T01:31:33;8.80;99.90
16515;DHT22;8370;52.556;7.970;2023-02-23T01:34:00;8.70;99.90
16515;DHT22;8370;52.556;7.970;2023-02-23T01:36:27;8.70;99.90
16515;DHT22;8370;52.556;7.970;2023-02-23T01:38:55;8.70;99.90
16515;DHT22;8370;52.556;7.970;2023-02-23T01:41:22;8.70;99.90
16515;DHT22;8370;52.556;7.970;2023-02-23T01:44:06;8.70;99.90
16515;DHT22;8370;52.556;7.970;2023-02-23T01:46:37;8.80;99.90
16515;DHT22;8370;52.556;7.970;2023-02-23T01:49:08;8.80;99.90
16515;DHT22;8370;52.556;7.970;2023-02-23T01:51:39;8.70;99.90
16515;DHT22;8370;52.556;7.970;2023-02-23T01:54:32;8.60;99.90
16515;DHT22;8370;52.556;7.970;2023-02-23T01:57:02;8.70;99.90
16515;DHT22;8370;52.556;7.970;2023-02-23T01:59:32;8.70;99.90
16515;DHT22;8370;52.556;7.970;2023-02-23T02:01:59;8.70;99.90
16515;DHT22;8370;52.556;7.970;2023-02-23T02:04:25;8.60;99.90
16515;DHT22;8370;52.556;7.970;2023-02-23T02:06:53;8.60;99.90
16515;DHT22;8370;52.556;7.970;2023-02-23T02:09:21;8.60;99.90
16515;DHT22;8370;52.556;7.970;2023-02-23T02:11:50;8.60;99.90
16515;DHT22;8370;52.556;7.970;2023-02-23T02:14:23;8.60;99.90
16515;DHT22;8370;52.556;7.970;2023-02-23T02:17:06;8.60;99.90
16515;DHT22;8370;52.556;7.970;2023-02-23T02:23:15;8.60;99.90
16515;DHT22;8370;52.556;7.970;2023-02-23T02:31:44;8.50;99.90
16515;DHT22;8370;52.556;7.970;2023-02-23T02:34:46;8.50;99.90
16515;DHT22;8370;52.556;7.970;2023-02-23T02:40:02;8.40;99.90
16515;DHT22;8370;52.556;7.970;2023-02-23T02:42:53;8.40;99.90
16515;DHT22;8370;52.556;7.970;2023-02-23T02:45:35;8.40;99.90
16515;DHT22;8370;52.556;7.970;2023-02-23T02:48:11;8.40;99.90
16515;DHT22;8370;52.556;7.970;2023-02-23T02:51:00;8.40;99.90
16515;DHT22;8370;52.556;7.970;2023-02-23T02:54:24;8.40;99.90
16515;DHT22;8370;52.556;7.970;2023-02-23T02:56:48;8.30;99.90
16515;DHT22;8370;52.556;7.970;2023-02-23T02:59:17;8.30;99.90
16515;DHT22;8370;52.556;7.970;2023-02-23T03:02:03;8.20;99.90
16515;DHT22;8370;52.556;7.970;2023-02-23T03:04:47;8.20;99.90
16515;DHT22;8370;52.556;7.970;2023-02-23T03:08:04;8.20;99.90
16515;DHT22;8370;52.556;7.970;2023-02-23T03:10:55;8.20;99.90
16515;DHT22;8370;52.556;7.970;2023-02-23T03:17:03;8.20;99.90
16515;DHT22;8370;52.556;7.970;2023-02-23T03:22:59;8.20;99.90
16515;DHT22;8370;52.556;7.970;2023-02-23T03:26:10;8.20;99.90
16515;DHT22;8370;52.556;7.970;2023-02-23T03:29:27;8.20;99.90
16515;DHT22;8370;52.556;7.970;2023-02-23T03:32:43;8.10;99.90
16515;DHT22;8370;52.556;7.970;2023-02-23T03:35:37;8.20;99.90
16515;DHT22;8370;52.556;7.970;2023-02-23T03:38:44;8.10;99.90
16515;DHT22;8370;52.556;7.970;2023-02-23T03:41:30;8.20;99.90
16515;DHT22;8370;52.556;7.970;2023-02-23T03:44:21;8.20;99.90
16515;DHT22;8370;52.556;7.970;2023-02-23T03:47:08;8.20;99.90
16515;DHT22;8370;52.556;7.970;2023-02-23T03:49:55;8.10;99.90
16515;DHT22;8370;52.556;7.970;2023-02-23T03:52:44;8.10;99.90
16515;DHT22;8370;52.556;7.970;2023-02-23T03:55:32;8.10;99.90
16515;DHT22;8370;52.556;7.970;2023-02-23T03:58:23;8.10;99.90
16515;DHT22;8370;52.556;7.970;2023-02-23T04:01:09;8.10;99.90
16515;DHT22;8370;52.556;7.970;2023-02-23T04:03:56;8.10;99.90
16515;DHT22;8370;52.556;7.970;2023-02-23T04:06:44;8.10;99.90
16515;DHT22;8370;52.556;7.970;2023-02-23T04:09:30;8.20;99.90
16515;DHT22;8370;52.556;7.970;2023-02-23T04:12:28;8.20;99.90
16515;DHT22;8370;52.556;7.970;2023-02-23T04:15:25;8.10;99.90
16515;DHT22;8370;52.556;7.970;2023-02-23T04:17:52;8.10;99.90
16515;DHT22;8370;52.556;7.970;2023-02-23T04:20:19;8.10;99.90
16515;DHT22;8370;52.556;7.970;2023-02-23T04:22:44;8.10;99.90
16515;DHT22;8370;52.556;7.970;2023-02-23T04:25:12;8.10;99.90
16515;DHT22;8370;52.556;7.970;2023-02-23T04:27:38;8.10;99.90
16515;DHT22;8370;52.556;7.970;2023-02-23T04:30:04;8.10;99.90
16515;DHT22;8370;52.556;7.970;2023-02-23T04:32:30;8.10;99.90
16515;DHT22;8370;52.556;7.970;2023-02-23T04:34:55;8.10;99.90
16515;DHT22;8370;52.556;7.970;2023-02-23T04:37:21;8.20;99.90
16515;DHT22;8370;52.556;7.970;2023-02-23T04:39:47;8.20;99.90
16515;DHT22;8370;52.556;7.970;2023-02-23T04:42:16;8.30;99.90
16515;DHT22;8370;52.556;7.970;2023-02-23T04:44:42;8.30;99.90
16515;DHT22;8370;52.556;7.970;2023-02-23T04:47:08;8.30;99.90
16515;DHT22;8370;52.556;7.970;2023-02-23T04:49:33;8.30;99.90
16515;DHT22;8370;52.556;7.970;2023-02-23T04:51:59;8.40;99.90
16515;DHT22;8370;52.556;7.970;2023-02-23T04:54:25;8.30;99.90
16515;DHT22;8370;52.556;7.970;2023-02-23T04:56:50;8.20;99.90
16515;DHT22;8370;52.556;7.970;2023-02-23T04:59:16;8.30;99.90
16515;DHT22;8370;52.556;7.970;2023-02-23T05:01:41;8.20;99.90
16515;DHT22;8370;52.556;7.970;2023-02-23T05:04:07;8.20;99.90
16515;DHT22;8370;52.556;7.970;2023-02-23T05:06:32;8.10;99.90
16515;DHT22;8370;52.556;7.970;2023-02-23T05:08:58;8.10;99.90
16515;DHT22;8370;52.556;7.970;2023-02-23T05:11:24;8.10;99.90
16515;DHT22;8370;52.556;7.970;2023-02-23T05:13:50;8.00;99.90
16515;DHT22;8370;52.556;7.970;2023-02-23T05:16:16;8.00;99.90
16515;DHT22;8370;52.556;7.970;2023-02-23T05:18:42;8.00;99.90
16515;DHT22;8370;52.556;7.970;2023-02-23T05:21:08;8.10;99.90
16515;DHT22;8370;52.556;7.970;2023-02-23T05:23:36;8.00;99.90
16515;DHT22;8370;52.556;7.970;2023-02-23T05:26:09;8.00;99.90
16515;DHT22;8370;52.556;7.970;2023-02-23T05:28:36;8.10;99.90
16515;DHT22;8370;52.556;7.970;2023-02-23T05:31:03;8.10;99.90
16515;DHT22;8370;52.556;7.970;2023-02-23T05:33:32;8.00;99.90
16515;DHT22;8370;52.556;7.970;2023-02-23T05:35:58;7.90;99.90
16515;DHT22;8370;52.556;7.970;2023-02-23T05:38:24;7.90;99.90
16515;DHT22;8370;52.556;7.970;2023-02-23T05:40:50;7.80;99.90
16515;DHT22;8370;52.556;7.970;2023-02-23T05:43:16;7.80;99.90
16515;DHT22;8370;52.556;7.970;2023-02-23T05:45:42;7.90;99.90
16515;DHT22;8370;52.556;7.970;2023-02-23T05:48:11;7.90;99.90
16515;DHT22;8370;52.556;7.970;2023-02-23T05:50:37;7.90;99.90
16515;DHT22;8370;52.556;7.970;2023-02-23T05:53:02;7.90;99.90
16515;DHT22;8370;52.556;7.970;2023-02-23T05:55:28;7.80;99.90
16515;DHT22;8370;52.556;7.970;2023-02-23T05:57:54;7.80;99.90
16515;DHT22;8370;52.556;7.970;2023-02-23T06:00:19;7.80;99.90
16515;DHT22;8370;52.556;7.970;2023-02-23T06:02:45;7.80;99.90
16515;DHT22;8370;52.556;7.970;2023-02-23T06:05:11;7.80;99.90
16515;DHT22;8370;52.556;7.970;2023-02-23T06:07:38;7.80;99.90
16515;DHT22;8370;52.556;7.970;2023-02-23T06:10:04;7.80;99.90
16515;DHT22;8370;52.556;7.970;2023-02-23T06:12:30;7.80;99.90
16515;DHT22;8370;52.556;7.970;2023-02-23T06:14:55;7.90;99.90
16515;DHT22;8370;52.556;7.970;2023-02-23T06:17:21;7.80;99.90
16515;DHT22;8370;52.556;7.970;2023-02-23T06:19:47;7.80;99.90
16515;DHT22;8370;52.556;7.970;2023-02-23T06:22:13;7.80;99.90
16515;DHT22;8370;52.556;7.970;2023-02-23T06:24:38;7.80;99.90
16515;DHT22;8370;52.556;7.970;2023-02-23T06:27:04;7.80;99.90
16515;DHT22;8370;52.556;7.970;2023-02-23T06:29:29;7.80;99.90
16515;DHT22;8370;52.556;7.970;2023-02-23T06:31:55;7.80;99.90
16515;DHT22;8370;52.556;7.970;2023-02-23T06:34:20;7.80;99.90
16515;DHT22;8370;52.556;7.970;2023-02-23T06:36:46;7.80;99.90
16515;DHT22;8370;52.556;7.970;2023-02-23T06:39:11;7.80;99.90
16515;DHT22;8370;52.556;7.970;2023-02-23T06:41:37;7.80;99.90
16515;DHT22;8370;52.556;7.970;2023-02-23T06:44:03;7.90;99.90
16515;DHT22;8370;52.556;7.970;2023-02-23T06:46:28;7.90;99.90
16515;DHT22;8370;52.556;7.970;2023-02-23T06:48:54;7.90;99.90
16515;DHT22;8370;52.556;7.970;2023-02-23T06:51:20;7.90;99.90
16515;DHT22;8370;52.556;7.970;2023-02-23T06:53:45;7.90;99.90
16515;DHT22;8370;52.556;7.970;2023-02-23T06:56:11;7.90;99.90
16515;DHT22;8370;52.556;7.970;2023-02-23T06:58:38;7.90;99.90
16515;DHT22;8370;52.556;7.970;2023-02-23T07:01:04;8.00;99.90
16515;DHT22;8370;52.556;7.970;2023-02-23T07:03:29;8.00;99.90
16515;DHT22;8370;52.556;7.970;2023-02-23T07:05:55;8.00;99.90
16515;DHT22;8370;52.556;7.970;2023-02-23T07:08:21;8.00;99.90
16515;DHT22;8370;52.556;7.970;2023-02-23T07:10:46;8.00;99.90
16515;DHT22;8370;52.556;7.970;2023-02-23T07:13:12;8.00;99.90
16515;DHT22;8370;52.556;7.970;2023-02-23T07:15:38;8.00;99.90
16515;DHT22;8370;52.556;7.970;2023-02-23T07:18:04;8.00;99.90
16515;DHT22;8370;52.556;7.970;2023-02-23T07:20:30;8.00;99.90
16515;DHT22;8370;52.556;7.970;2023-02-23T07:22:56;8.00;99.90
16515;DHT22;8370;52.556;7.970;2023-02-23T07:25:21;8.00;99.90
16515;DHT22;8370;52.556;7.970;2023-02-23T07:27:47;8.10;99.90
16515;DHT22;8370;52.556;7.970;2023-02-23T07:30:13;8.10;99.90
16515;DHT22;8370;52.556;7.970;2023-02-23T07:32:39;8.10;99.90
16515;DHT22;8370;52.556;7.970;2023-02-23T07:35:05;8.20;99.90
16515;DHT22;8370;52.556;7.970;2023-02-23T07:37:30;8.20;99.90
16515;DHT22;8370;52.556;7.970;2023-02-23T07:39:56;8.20;99.90
16515;DHT22;8370;52.556;7.970;2023-02-23T07:42:22;8.20;99.90
16515;DHT22;8370;52.556;7.970;2023-02-23T07:44:47;8.20;99.90
16515;DHT22;8370;52.556;7.970;2023-02-23T07:47:13;8.20;99.90
16515;DHT22;8370;52.556;7.970;2023-02-23T07:49:38;8.30;99.90
16515;DHT22;8370;52.556;7.970;2023-02-23T07:52:03;8.30;99.90
16515;DHT22;8370;52.556;7.970;2023-02-23T07:54:29;8.30;99.90
16515;DHT22;8370;52.556;7.970;2023-02-23T07:56:54;8.30;99.90
16515;DHT22;8370;52.556;7.970;2023-02-23T07:59:20;8.40;99.90
16515;DHT22;8370;52.556;7.970;2023-02-23T08:01:46;8.40;99.90
16515;DHT22;8370;52.556;7.970;2023-02-23T08:04:11;8.50;99.90
16515;DHT22;8370;52.556;7.970;2023-02-23T08:06:37;8.50;99.90
16515;DHT22;8370;52.556;7.970;2023-02-23T08:09:03;8.50;99.90
16515;DHT22;8370;52.556;7.970;2023-02-23T08:11:29;8.60;99.90
16515;DHT22;8370;52.556;7.970;2023-02-23T08:13:55;8.70;99.90
16515;DHT22;8370;52.556;7.970;2023-02-23T08:16:25;8.70;99.90
16515;DHT22;8370;52.556;7.970;2023-02-23T08:18:51;8.60;99.90
16515;DHT22;8370;52.556;7.970;2023-02-23T08:21:16;8.50;99.90
16515;DHT22;8370;52.556;7.970;2023-02-23T08:23:42;8.50;99.90
16515;DHT22;8370;52.556;7.970;2023-02-23T08:26:07;8.60;99.90
16515;DHT22;8370;52.556;7.970;2023-02-23T08:28:33;8.50;99.90
16515;DHT22;8370;52.556;7.970;2023-02-23T08:30:58;8.50;99.90
16515;DHT22;8370;52.556;7.970;2023-02-23T08:33:24;8.50;99.90
16515;DHT22;8370;52.556;7.970;2023-02-23T08:35:49;8.50;99.90
16515;DHT22;8370;52.556;7.970;2023-02-23T08:38:17;8.50;99.90
16515;DHT22;8370;52.556;7.970;2023-02-23T08:40:43;8.50;99.90
16515;DHT22;8370;52.556;7.970;2023-02-23T08:43:08;8.60;99.90
16515;DHT22;8370;52.556;7.970;2023-02-23T08:45:34;8.60;99.90
16515;DHT22;8370;52.556;7.970;2023-02-23T08:47:59;8.50;99.90
16515;DHT22;8370;52.556;7.970;2023-02-23T08:50:25;8.50;99.90
16515;DHT22;8370;52.556;7.970;2023-02-23T08:52:50;8.40;99.90
16515;DHT22;8370;52.556;7.970;2023-02-23T08:55:16;8.50;99.90
16515;DHT22;8370;52.556;7.970;2023-02-23T08:57:42;8.40;99.90
16515;DHT22;8370;52.556;7.970;2023-02-23T09:00:09;8.40;99.90
16515;DHT22;8370;52.556;7.970;2023-02-23T09:02:42;8.40;99.90
16515;DHT22;8370;52.556;7.970;2023-02-23T09:05:08;8.50;99.90
16515;DHT22;8370;52.556;7.970;2023-02-23T09:07:36;8.50;99.90
16515;DHT22;8370;52.556;7.970;2023-02-23T09:10:02;8.50;99.90
16515;DHT22;8370;52.556;7.970;2023-02-23T09:12:27;8.70;99.90
16515;DHT22;8370;52.556;7.970;2023-02-23T09:14:53;8.60;99.90
16515;DHT22;8370;52.556;7.970;2023-02-23T09:17:19;8.60;99.90
16515;DHT22;8370;52.556;7.970;2023-02-23T09:19:47;8.50;99.90
16515;DHT22;8370;52.556;7.970;2023-02-23T09:22:13;8.60;99.90
16515;DHT22;8370;52.556;7.970;2023-02-23T09:24:38;8.50;99.90
16515;DHT22;8370;52.556;7.970;2023-02-23T09:27:04;8.50;99.90
16515;DHT22;8370;52.556;7.970;2023-02-23T09:29:32;8.60;99.90
16515;DHT22;8370;52.556;7.970;2023-02-23T09:31:57;8.40;99.90
16515;DHT22;8370;52.556;7.970;2023-02-23T09:34:23;8.50;99.90
16515;DHT22;8370;52.556;7.970;2023-02-23T09:36:48;8.50;99.90
16515;DHT22;8370;52.556;7.970;2023-02-23T09:39:15;8.60;99.90
16515;DHT22;8370;52.556;7.970;2023-02-23T09:42:06;8.60;99.90
16515;DHT22;8370;52.556;7.970;2023-02-23T09:50:27;8.60;99.90
16515;DHT22;8370;52.556;7.970;2023-02-23T09:53:25;8.60;99.90
16515;DHT22;8370;52.556;7.970;2023-02-23T09:55:54;8.60;99.90
16515;DHT22;8370;52.556;7.970;2023-02-23T09:58:30;8.60;99.90
16515;DHT22;8370;52.556;7.970;2023-02-23T10:06:49;8.70;99.90
16515;DHT22;8370;52.556;7.970;2023-02-23T10:15:23;8.80;99.90
16515;DHT22;8370;52.556;7.970;2023-02-23T10:17:54;8.80;99.90
16515;DHT22;8370;52.556;7.970;2023-02-23T10:23:20;8.90;99.90
16515;DHT22;8370;52.556;7.970;2023-02-23T10:25:49;9.00;99.90
16515;DHT22;8370;52.556;7.970;2023-02-23T10:28:20;9.00;99.90
16515;DHT22;8370;52.556;7.970;2023-02-23T10:30:47;9.00;99.90
16515;DHT22;8370;52.556;7.970;2023-02-23T10:33:23;9.00;99.90
16515;DHT22;8370;52.556;7.970;2023-02-23T10:35:59;9.10;99.90
16515;DHT22;8370;52.556;7.970;2023-02-23T10:38:30;9.20;99.90
16515;DHT22;8370;52.556;7.970;2023-02-23T10:40:55;9.20;99.90
16515;DHT22;8370;52.556;7.970;2023-02-23T10:43:21;9.30;99.90
16515;DHT22;8370;52.556;7.970;2023-02-23T10:45:49;9.50;99.90
16515;DHT22;8370;52.556;7.970;2023-02-23T10:48:21;9.60;99.90
16515;DHT22;8370;52.556;7.970;2023-02-23T10:50:49;9.50;99.90
16515;DHT22;8370;52.556;7.970;2023-02-23T10:53:20;9.60;99.90
16515;DHT22;8370;52.556;7.970;2023-02-23T10:56:12;9.70;99.90
16515;DHT22;8370;52.556;7.970;2023-02-23T10:58:51;9.80;99.90
16515;DHT22;8370;52.556;7.970;2023-02-23T11:01:35;9.90;99.90
16515;DHT22;8370;52.556;7.970;2023-02-23T11:04:23;9.80;99.90
16515;DHT22;8370;52.556;7.970;2023-02-23T11:06:50;9.70;99.90
16515;DHT22;8370;52.556;7.970;2023-02-23T11:09:27;9.60;99.90
16515;DHT22;8370;52.556;7.970;2023-02-23T11:12:18;9.50;99.90
16515;DHT22;8370;52.556;7.970;2023-02-23T11:14:51;9.40;99.90
16515;DHT22;8370;52.556;7.970;2023-02-23T11:17:33;9.40;99.90
16515;DHT22;8370;52.556;7.970;2023-02-23T11:20:03;9.40;99.90
16515;DHT22;8370;52.556;7.970;2023-02-23T11:22:35;9.20;99.90
16515;DHT22;8370;52.556;7.970;2023-02-23T11:25:13;9.20;99.90
16515;DHT22;8370;52.556;7.970;2023-02-23T11:27:45;9.10;99.90
16515;DHT22;8370;52.556;7.970;2023-02-23T11:30:12;8.90;99.90
16515;DHT22;8370;52.556;7.970;2023-02-23T11:32:37;9.00;99.90
16515;DHT22;8370;52.556;7.970;2023-02-23T11:35:33;9.00;99.90
16515;DHT22;8370;52.556;7.970;2023-02-23T11:38:23;9.00;99.90
16515;DHT22;8370;52.556;7.970;2023-02-23T11:41:04;9.00;99.90
16515;DHT22;8370;52.556;7.970;2023-02-23T11:43:35;8.90;99.90
16515;DHT22;8370;52.556;7.970;2023-02-23T11:46:01;8.90;99.90
16515;DHT22;8370;52.556;7.970;2023-02-23T11:48:32;8.80;99.90
16515;DHT22;8370;52.556;7.970;2023-02-23T11:50:59;8.80;99.90
16515;DHT22;8370;52.556;7.970;2023-02-23T11:55:58;8.80;99.90
16515;DHT22;8370;52.556;7.970;2023-02-23T11:58:37;8.70;99.90
16515;DHT22;8370;52.556;7.970;2023-02-23T12:01:09;8.70;99.90
16515;DHT22;8370;52.556;7.970;2023-02-23T12:03:37;8.70;99.90
16515;DHT22;8370;52.556;7.970;2023-02-23T12:06:08;8.70;99.90
16515;DHT22;8370;52.556;7.970;2023-02-23T12:08:41;8.70;99.90
16515;DHT22;8370;52.556;7.970;2023-02-23T12:11:15;8.70;99.90
16515;DHT22;8370;52.556;7.970;2023-02-23T12:16:31;8.70;99.90
16515;DHT22;8370;52.556;7.970;2023-02-23T12:19:19;8.60;99.90
16515;DHT22;8370;52.556;7.970;2023-02-23T12:21:48;8.60;99.90
16515;DHT22;8370;52.556;7.970;2023-02-23T12:25:22;8.60;99.90
16515;DHT22;8370;52.556;7.970;2023-02-23T12:27:25;8.60;99.90
16515;DHT22;8370;52.556;7.970;2023-02-23T12:32:28;8.70;99.90
16515;DHT22;8370;52.556;7.970;2023-02-23T12:35:24;8.70;99.90
16515;DHT22;8370;52.556;7.970;2023-02-23T12:38:02;8.70;99.90
16515;DHT22;8370;52.556;7.970;2023-02-23T12:40:34;8.70;99.90
16515;DHT22;8370;52.556;7.970;2023-02-23T12:46:13;8.70;99.90
16515;DHT22;8370;52.556;7.970;2023-02-23T12:49:01;8.80;99.90
16515;DHT22;8370;52.556;7.970;2023-02-23T12:52:05;8.70;99.90
16515;DHT22;8370;52.556;7.970;2023-02-23T12:54:35;8.70;99.90
16515;DHT22;8370;52.556;7.970;2023-02-23T12:57:26;8.70;99.90
16515;DHT22;8370;52.556;7.970;2023-02-23T13:02:36;8.70;99.90
16515;DHT22;8370;52.556;7.970;2023-02-23T13:05:22;8.70;99.90
16515;DHT22;8370;52.556;7.970;2023-02-23T13:08:01;8.60;99.90
16515;DHT22;8370;52.556;7.970;2023-02-23T13:10:49;8.60;99.90
16515;DHT22;8370;52.556;7.970;2023-02-23T13:13:29;8.50;99.90
16515;DHT22;8370;52.556;7.970;2023-02-23T13:16:09;8.40;99.90
16515;DHT22;8370;52.556;7.970;2023-02-23T13:18:51;8.50;99.90
16515;DHT22;8370;52.556;7.970;2023-02-23T13:21:32;8.40;99.90
16515;DHT22;8370;52.556;7.970;2023-02-23T13:24:16;8.40;99.90
16515;DHT22;8370;52.556;7.970;2023-02-23T13:27:14;8.30;99.90
16515;DHT22;8370;52.556;7.970;2023-02-23T13:29:44;8.40;99.90
16515;DHT22;8370;52.556;7.970;2023-02-23T13:32:16;8.40;99.90
16515;DHT22;8370;52.556;7.970;2023-02-23T13:34:52;8.50;99.90
16515;DHT22;8370;52.556;7.970;2023-02-23T13:37:31;8.40;99.90
16515;DHT22;8370;52.556;7.970;2023-02-23T13:40:14;8.50;99.90
16515;DHT22;8370;52.556;7.970;2023-02-23T13:50:46;8.60;99.90
16515;DHT22;8370;52.556;7.970;2023-02-23T13:56:10;8.70;99.90
16515;DHT22;8370;52.556;7.970;2023-02-23T13:58:50;8.70;99.90
16515;DHT22;8370;52.556;7.970;2023-02-23T14:01:28;8.70;99.90
16515;DHT22;8370;52.556;7.970;2023-02-23T14:03:57;8.60;99.90
16515;DHT22;8370;52.556;7.970;2023-02-23T14:06:25;8.60;99.90
16515;DHT22;8370;52.556;7.970;2023-02-23T14:08:59;8.60;99.90
16515;DHT22;8370;52.556;7.970;2023-02-23T14:14:03;8.60;99.90
16515;DHT22;8370;52.556;7.970;2023-02-23T14:16:29;8.40;99.90
16515;DHT22;8370;52.556;7.970;2023-02-23T14:19:29;8.30;99.90
16515;DHT22;8370;52.556;7.970;2023-02-23T14:22:08;8.30;99.90
16515;DHT22;8370;52.556;7.970;2023-02-23T14:24:34;8.20;99.90
16515;DHT22;8370;52.556;7.970;2023-02-23T14:34:48;8.20;99.90
16515;DHT22;8370;52.556;7.970;2023-02-23T14:37:34;8.20;99.90
16515;DHT22;8370;52.556;7.970;2023-02-23T14:40:20;8.20;99.90
16515;DHT22;8370;52.556;7.970;2023-02-23T14:42:50;8.20;99.90
16515;DHT22;8370;52.556;7.970;2023-02-23T14:45:23;8.20;99.90
16515;DHT22;8370;52.556;7.970;2023-02-23T14:48:00;8.20;99.90
16515;DHT22;8370;52.556;7.970;2023-02-23T14:50:28;8.30;99.90
16515;DHT22;8370;52.556;7.970;2023-02-23T14:52:56;8.30;99.90
16515;DHT22;8370;52.556;7.970;2023-02-23T14:55:30;8.30;99.90
16515;DHT22;8370;52.556;7.970;2023-02-23T14:57:57;8.30;99.90
16515;DHT22;8370;52.556;7.970;2023-02-23T15:00:31;8.20;99.90
16515;DHT22;8370;52.556;7.970;2023-02-23T15:03:05;8.30;99.90
16515;DHT22;8370;52.556;7.970;2023-02-23T15:05:54;8.30;99.90
16515;DHT22;8370;52.556;7.970;2023-02-23T15:08:22;8.40;99.90
16515;DHT22;8370;52.556;7.970;2023-02-23T15:10:50;8.40;99.90
16515;DHT22;8370;52.556;7.970;2023-02-23T15:13:37;8.40;99.90
16515;DHT22;8370;52.556;7.970;2023-02-23T15:16:13;8.40;99.90
16515;DHT22;8370;52.556;7.970;2023-02-23T15:21:56;8.40;99.90
16515;DHT22;8370;52.556;7.970;2023-02-23T15:24:26;8.40;99.90
16515;DHT22;8370;52.556;7.970;2023-02-23T15:26:55;8.40;99.90
16515;DHT22;8370;52.556;7.970;2023-02-23T15:29:23;8.40;99.90
16515;DHT22;8370;52.556;7.970;2023-02-23T15:31:53;8.40;99.90
16515;DHT22;8370;52.556;7.970;2023-02-23T15:34:27;8.40;99.90
16515;DHT22;8370;52.556;7.970;2023-02-23T15:37:01;8.40;99.90
16515;DHT22;8370;52.556;7.970;2023-02-23T15:39:46;8.40;99.90
16515;DHT22;8370;52.556;7.970;2023-02-23T15:42:16;8.40;99.90
16515;DHT22;8370;52.556;7.970;2023-02-23T15:44:43;8.40;99.90
16515;DHT22;8370;52.556;7.970;2023-02-23T15:47:23;8.40;99.90
16515;DHT22;8370;52.556;7.970;2023-02-23T15:50:00;8.40;99.90
16515;DHT22;8370;52.556;7.970;2023-02-23T15:52:27;8.40;99.90
16515;DHT22;8370;52.556;7.970;2023-02-23T15:55:09;8.30;99.90
16515;DHT22;8370;52.556;7.970;2023-02-23T15:57:48;8.40;99.90
16515;DHT22;8370;52.556;7.970;2023-02-23T16:00:26;8.30;99.90
16515;DHT22;8370;52.556;7.970;2023-02-23T16:03:18;8.30;99.90
16515;DHT22;8370;52.556;7.970;2023-02-23T16:05:55;8.40;99.90
16515;DHT22;8370;52.556;7.970;2023-02-23T16:08:24;8.30;99.90
16515;DHT22;8370;52.556;7.970;2023-02-23T16:11:06;8.30;99.90
16515;DHT22;8370;52.556;7.970;2023-02-23T16:13:32;8.30;99.90
16515;DHT22;8370;52.556;7.970;2023-02-23T16:15:58;8.30;99.90
16515;DHT22;8370;52.556;7.970;2023-02-23T16:18:43;8.30;99.90
16515;DHT22;8370;52.556;7.970;2023-02-23T16:21:14;8.20;99.90
16515;DHT22;8370;52.556;7.970;2023-02-23T16:23:44;8.20;99.90
16515;DHT22;8370;52.556;7.970;2023-02-23T16:26:33;8.20;99.90
16515;DHT22;8370;52.556;7.970;2023-02-23T16:29:02;8.30;99.90
16515;DHT22;8370;52.556;7.970;2023-02-23T16:31:44;8.30;99.90
16515;DHT22;8370;52.556;7.970;2023-02-23T16:36:58;8.20;99.90
16515;DHT22;8370;52.556;7.970;2023-02-23T16:39:27;8.20;99.90
16515;DHT22;8370;52.556;7.970;2023-02-23T16:41:57;8.20;99.90
16515;DHT22;8370;52.556;7.970;2023-02-23T16:44:25;8.20;99.90
16515;DHT22;8370;52.556;7.970;2023-02-23T16:49:28;8.10;99.90
16515;DHT22;8370;52.556;7.970;2023-02-23T16:51:55;8.20;99.90
16515;DHT22;8370;52.556;7.970;2023-02-23T16:54:21;8.10;99.90
16515;DHT22;8370;52.556;7.970;2023-02-23T16:56:47;8.10;99.90
16515;DHT22;8370;52.556;7.970;2023-02-23T16:59:16;8.30;99.90
16515;DHT22;8370;52.556;7.970;2023-02-23T17:01:42;8.20;99.90
16515;DHT22;8370;52.556;7.970;2023-02-23T17:04:15;8.30;99.90
16515;DHT22;8370;52.556;7.970;2023-02-23T17:06:43;8.20;99.90
16515;DHT22;8370;52.556;7.970;2023-02-23T17:09:10;8.20;99.90
16515;DHT22;8370;52.556;7.970;2023-02-23T17:11:37;8.20;99.90
16515;DHT22;8370;52.556;7.970;2023-02-23T17:14:03;8.10;99.90
16515;DHT22;8370;52.556;7.970;2023-02-23T17:16:29;8.10;99.90
16515;DHT22;8370;52.556;7.970;2023-02-23T17:18:54;8.00;99.90
16515;DHT22;8370;52.556;7.970;2023-02-23T17:21:23;7.80;99.90
16515;DHT22;8370;52.556;7.970;2023-02-23T17:23:50;7.60;99.90
16515;DHT22;8370;52.556;7.970;2023-02-23T17:26:23;7.50;99.90
16515;DHT22;8370;52.556;7.970;2023-02-23T17:28:50;7.40;99.90
16515;DHT22;8370;52.556;7.970;2023-02-23T17:31:17;7.40;99.90
16515;DHT22;8370;52.556;7.970;2023-02-23T17:33:43;7.30;99.90
16515;DHT22;8370;52.556;7.970;2023-02-23T17:36:12;7.20;99.90
16515;DHT22;8370;52.556;7.970;2023-02-23T17:38:38;7.10;99.90
16515;DHT22;8370;52.556;7.970;2023-02-23T17:41:12;7.00;99.90
16515;DHT22;8370;52.556;7.970;2023-02-23T17:43:38;7.00;99.90
16515;DHT22;8370;52.556;7.970;2023-02-23T17:46:03;7.00;99.90
16515;DHT22;8370;52.556;7.970;2023-02-23T17:48:29;7.00;99.90
16515;DHT22;8370;52.556;7.970;2023-02-23T17:51:04;7.00;99.90
16515;DHT22;8370;52.556;7.970;2023-02-23T17:53:30;6.90;99.90
16515;DHT22;8370;52.556;7.970;2023-02-23T17:55:57;6.80;99.90